Time;durP1;ratioP1;P1;durP2;ratioP2;P2;SDS_P1;SDS_P2;PMS_P1;PMS_P2;Temp;Humidity;BMP_temperature;BMP_pressure;BME280_temperature;BME280_humidity;BME280_pressure;Samples;Min_cycle;Max_cycle;Signal;HPM_P1;HPM_P2
2020/12/04 00:02:25;;;;;;;18.73;9.73;;;0.80;99.90;;;;;;5110332;28;20522;-55
2020/12/04 00:04:51;;;;;;;15.33;8.33;;;0.50;99.90;;;;;;5110202;28;20475;-55
2020/12/04 00:07:18;;;;;;;17.80;8.13;;;0.50;99.90;;;;;;5090496;28;20454;-55
2020/12/04 00:09:44;;;;;;;14.47;8.10;;;0.50;99.90;;;;;;5094985;28;20505;-55
2020/12/04 00:12:11;;;;;;;12.10;7.23;;;0.60;99.90;;;;;;5098733;28;20458;-56
2020/12/04 00:14:39;;;;;;;13.60;7.73;;;0.80;99.90;;;;;;5090186;28;20495;-56
2020/12/04 00:17:05;;;;;;;15.13;8.47;;;1.00;99.90;;;;;;5113818;28;20452;-55
2020/12/04 00:19:33;;;;;;;16.83;8.80;;;1.20;99.90;;;;;;5114278;28;20795;-55
2020/12/04 00:22:00;;;;;;;18.00;10.20;;;1.30;99.90;;;;;;5103297;28;20449;-56
2020/12/04 00:24:28;;;;;;;22.47;11.53;;;1.20;99.90;;;;;;5094253;28;20441;-56
2020/12/04 00:26:55;;;;;;;18.03;10.00;;;1.20;99.90;;;;;;5093688;28;21152;-56
2020/12/04 00:29:22;;;;;;;22.23;10.73;;;1.00;99.90;;;;;;5093612;28;20446;-56
2020/12/04 00:31:49;;;;;;;18.03;9.73;;;1.10;99.90;;;;;;5093643;28;20517;-56
2020/12/04 00:34:15;;;;;;;20.53;10.10;;;1.20;99.90;;;;;;5093481;28;20476;-55
2020/12/04 00:36:46;;;;;;;19.13;9.90;;;1.30;99.90;;;;;;5093644;28;20466;-56
2020/12/04 00:39:13;;;;;;;21.30;9.77;;;1.40;99.90;;;;;;5093495;28;20472;-56
2020/12/04 00:41:39;;;;;;;19.60;9.03;;;1.40;99.90;;;;;;5093369;28;20452;-56
2020/12/04 00:44:06;;;;;;;20.23;10.10;;;1.30;99.90;;;;;;5093876;28;20514;-56
2020/12/04 00:46:32;;;;;;;18.57;9.50;;;1.30;99.90;;;;;;5093274;28;20563;-56
2020/12/04 00:48:59;;;;;;;18.73;9.00;;;1.40;99.90;;;;;;5093306;28;20811;-56
2020/12/04 00:51:25;;;;;;;17.57;8.90;;;1.30;99.90;;;;;;5093580;28;20445;-56
2020/12/04 00:53:57;;;;;;;18.17;9.07;;;1.20;99.90;;;;;;5093720;28;20541;-56
2020/12/04 00:56:31;;;;;;;16.67;8.77;;;1.30;99.90;;;;;;5092924;28;20977;-56
2020/12/04 00:58:57;;;;;;;19.23;9.27;;;1.30;99.90;;;;;;5093204;28;20448;-56
2020/12/04 01:01:24;;;;;;;20.77;10.27;;;1.10;99.90;;;;;;5093108;28;20449;-56
2020/12/04 01:03:51;;;;;;;23.47;10.30;;;1.00;99.90;;;;;;5093241;28;20514;-56
2020/12/04 01:06:17;;;;;;;17.53;10.00;;;0.90;99.90;;;;;;5092914;28;20486;-55
2020/12/04 01:08:44;;;;;;;18.77;9.90;;;1.00;99.90;;;;;;5093071;28;21011;-56
2020/12/04 01:11:12;;;;;;;18.33;9.03;;;1.10;99.90;;;;;;5093042;28;20445;-57
2020/12/04 01:13:38;;;;;;;18.37;9.13;;;1.20;99.90;;;;;;5093240;28;20482;-57
2020/12/04 01:16:07;;;;;;;17.10;8.40;;;1.10;99.90;;;;;;5092249;28;20472;-56
2020/12/04 01:18:34;;;;;;;17.90;9.50;;;1.10;99.90;;;;;;5093125;28;20503;-56
2020/12/04 01:21:00;;;;;;;15.57;8.27;;;1.20;99.90;;;;;;5093132;28;20468;-56
2020/12/04 01:23:27;;;;;;;15.23;7.90;;;1.20;99.90;;;;;;5092924;28;20440;-55
2020/12/04 01:25:53;;;;;;;14.10;7.50;;;1.40;99.90;;;;;;5092517;28;20967;-56
2020/12/04 01:28:21;;;;;;;14.60;7.90;;;1.50;99.90;;;;;;5092451;28;20446;-56
2020/12/04 01:30:47;;;;;;;13.03;6.97;;;1.40;99.90;;;;;;5092533;28;20449;-56
2020/12/04 01:33:14;;;;;;;11.87;7.10;;;1.30;99.90;;;;;;5092897;28;20449;-55
2020/12/04 01:35:40;;;;;;;13.47;7.17;;;1.20;99.90;;;;;;5092858;28;20822;-55
2020/12/04 01:38:07;;;;;;;15.10;6.77;;;1.20;99.90;;;;;;5093006;28;20449;-55
2020/12/04 01:40:33;;;;;;;8.90;5.77;;;1.20;99.90;;;;;;5092312;28;20449;-55
2020/12/04 01:43:00;;;;;;;12.10;6.20;;;1.30;99.90;;;;;;5092315;28;20529;-55
2020/12/04 01:45:28;;;;;;;13.20;6.33;;;1.30;99.90;;;;;;5092308;28;20534;-54
2020/12/04 01:47:56;;;;;;;11.33;6.47;;;1.10;99.90;;;;;;5092553;28;20452;-55
2020/12/04 01:50:25;;;;;;;11.73;5.90;;;1.10;99.90;;;;;;5092521;28;20544;-55
2020/12/04 01:52:52;;;;;;;11.53;5.87;;;1.20;99.90;;;;;;5092166;28;20533;-55
2020/12/04 01:55:19;;;;;;;11.27;6.37;;;1.40;99.90;;;;;;5092199;28;20493;-55
2020/12/04 01:57:47;;;;;;;13.40;6.80;;;1.40;99.90;;;;;;5092025;28;20442;-54
2020/12/04 02:00:13;;;;;;;12.43;7.10;;;1.40;99.90;;;;;;5092027;28;20449;-55
2020/12/04 02:02:44;;;;;;;16.07;7.53;;;1.40;99.90;;;;;;5091778;28;20465;-55
2020/12/04 02:05:11;;;;;;;14.10;7.80;;;1.50;99.90;;;;;;5091665;28;20552;-55
2020/12/04 02:07:46;;;;;;;13.80;8.00;;;1.60;99.90;;;;;;5092087;28;20446;-55
2020/12/04 02:10:18;;;;;;;14.90;7.53;;;1.80;99.90;;;;;;5091787;28;20506;-55
2020/12/04 02:12:46;;;;;;;14.93;7.83;;;1.90;99.90;;;;;;5091616;28;20477;-55
2020/12/04 02:15:13;;;;;;;17.83;9.07;;;2.00;99.90;;;;;;5091904;28;20577;-54
2020/12/04 02:17:40;;;;;;;18.17;9.80;;;1.80;99.90;;;;;;5091867;28;20970;-55
2020/12/04 02:20:11;;;;;;;18.10;9.27;;;1.70;99.90;;;;;;5091368;28;20453;-55
2020/12/04 02:22:39;;;;;;;18.70;9.70;;;1.60;99.90;;;;;;5091743;28;20504;-55
2020/12/04 02:25:07;;;;;;;21.87;10.70;;;1.40;99.90;;;;;;5091646;28;20998;-55
2020/12/04 02:27:34;;;;;;;19.20;9.37;;;1.50;99.90;;;;;;5092336;28;20460;-54
2020/12/04 02:30:00;;;;;;;20.13;10.40;;;1.60;99.90;;;;;;5110351;28;20450;-55
2020/12/04 02:32:27;;;;;;;18.70;9.97;;;1.80;99.90;;;;;;5092246;28;20450;-55
2020/12/04 02:34:53;;;;;;;19.03;9.90;;;2.00;99.90;;;;;;5094066;28;20553;-55
2020/12/04 02:37:20;;;;;;;22.77;11.13;;;2.20;99.90;;;;;;5092298;28;20511;-55
2020/12/04 02:39:47;;;;;;;20.67;10.33;;;2.00;99.90;;;;;;5091420;28;20452;-55
2020/12/04 02:42:14;;;;;;;19.60;10.00;;;2.10;99.90;;;;;;5091677;28;20453;-54
2020/12/04 02:44:40;;;;;;;18.70;10.03;;;2.10;99.90;;;;;;5091501;28;20497;-55
2020/12/04 02:47:07;;;;;;;18.23;9.90;;;2.10;99.90;;;;;;5094848;28;20497;-55
2020/12/04 02:49:33;;;;;;;15.77;9.23;;;2.10;99.90;;;;;;5111530;28;20441;-55
2020/12/04 02:52:00;;;;;;;18.10;9.47;;;2.20;99.90;;;;;;5110314;28;20909;-55
2020/12/04 02:54:27;;;;;;;19.53;10.47;;;2.10;99.90;;;;;;5111558;28;20481;-55
2020/12/04 02:56:54;;;;;;;14.23;9.23;;;2.20;99.90;;;;;;5111735;28;20440;-55
2020/12/04 02:59:20;;;;;;;14.43;8.10;;;2.30;99.90;;;;;;5094156;28;20452;-55
2020/12/04 03:01:47;;;;;;;19.90;8.97;;;2.10;99.90;;;;;;5095412;28;20457;-55
2020/12/04 03:04:13;;;;;;;16.80;8.63;;;2.00;99.90;;;;;;5111355;28;20445;-55
2020/12/04 03:06:40;;;;;;;18.80;9.07;;;2.10;99.90;;;;;;5111088;28;20457;-55
2020/12/04 03:09:06;;;;;;;16.60;9.10;;;2.20;99.90;;;;;;5110988;28;20855;-55
2020/12/04 03:11:33;;;;;;;17.90;9.07;;;2.10;99.90;;;;;;5111436;28;20444;-55
2020/12/04 03:14:00;;;;;;;16.83;8.70;;;2.00;99.90;;;;;;5108893;28;21026;-55
2020/12/04 03:16:27;;;;;;;12.23;7.47;;;2.20;99.90;;;;;;5091521;28;20494;-54
2020/12/04 03:18:54;;;;;;;12.13;7.30;;;2.20;99.90;;;;;;5090440;28;20446;-55
2020/12/04 03:21:20;;;;;;;16.10;8.63;;;2.30;99.90;;;;;;5090668;28;20492;-55
2020/12/04 03:23:47;;;;;;;14.40;8.50;;;2.30;99.90;;;;;;5090805;28;20445;-55
2020/12/04 03:26:13;;;;;;;16.97;8.37;;;2.20;99.90;;;;;;5090595;28;20515;-55
2020/12/04 03:28:40;;;;;;;16.50;8.40;;;2.20;99.90;;;;;;5101611;28;20449;-55
2020/12/04 03:31:07;;;;;;;16.97;8.63;;;2.10;99.90;;;;;;5098784;28;20446;-55
2020/12/04 03:33:34;;;;;;;17.20;9.33;;;2.20;99.90;;;;;;5090495;28;20442;-55
2020/12/04 03:36:00;;;;;;;17.90;8.97;;;2.30;99.90;;;;;;5090405;28;21056;-55
2020/12/04 03:38:27;;;;;;;14.40;7.80;;;2.10;99.90;;;;;;5090913;28;21000;-55
2020/12/04 03:40:53;;;;;;;13.93;7.90;;;2.00;99.90;;;;;;5090785;28;20453;-55
2020/12/04 03:43:20;;;;;;;16.50;7.93;;;2.10;99.90;;;;;;5091132;28;20466;-55
2020/12/04 03:45:46;;;;;;;16.80;8.07;;;1.80;99.90;;;;;;5091631;28;20982;-55
2020/12/04 03:48:13;;;;;;;14.23;7.53;;;1.80;99.90;;;;;;5090479;28;20531;-55
2020/12/04 03:50:40;;;;;;;13.93;7.17;;;1.80;99.90;;;;;;5089183;28;20453;-55
2020/12/04 03:53:07;;;;;;;15.50;7.40;;;1.80;99.90;;;;;;5090630;28;20449;-55
2020/12/04 03:55:33;;;;;;;11.00;6.87;;;1.90;99.90;;;;;;5090663;28;20568;-55
2020/12/04 03:58:00;;;;;;;11.37;7.13;;;2.00;99.90;;;;;;5090693;28;20449;-55
2020/12/04 04:00:26;;;;;;;13.70;7.07;;;1.80;99.90;;;;;;5090298;28;20453;-55
2020/12/04 04:02:53;;;;;;;12.13;7.03;;;1.90;99.90;;;;;;5090240;28;20445;-55
2020/12/04 04:05:20;;;;;;;11.70;6.43;;;2.10;99.90;;;;;;5090529;28;21032;-55
2020/12/04 04:07:47;;;;;;;10.80;6.10;;;2.00;99.90;;;;;;5088929;28;20555;-54
2020/12/04 04:10:13;;;;;;;10.70;6.00;;;2.10;99.90;;;;;;5089013;28;20448;-54
2020/12/04 04:12:40;;;;;;;9.20;5.90;;;2.10;99.90;;;;;;5088955;28;20450;-55
2020/12/04 04:15:06;;;;;;;12.60;5.77;;;2.10;99.90;;;;;;5089103;28;20499;-54
2020/12/04 04:17:33;;;;;;;9.73;5.40;;;2.00;99.90;;;;;;5089039;28;20547;-54
2020/12/04 04:19:59;;;;;;;8.40;5.53;;;1.80;99.90;;;;;;5089126;28;20453;-55
2020/12/04 04:22:26;;;;;;;8.90;4.93;;;1.80;99.90;;;;;;5089280;28;20445;-55
2020/12/04 04:24:53;;;;;;;10.00;5.30;;;1.80;99.90;;;;;;5089103;28;20453;-54
2020/12/04 04:27:19;;;;;;;10.90;5.60;;;1.80;99.90;;;;;;5088912;28;20511;-55
2020/12/04 04:29:46;;;;;;;11.10;5.40;;;1.70;99.90;;;;;;5088824;28;20437;-54
2020/12/04 04:32:13;;;;;;;7.80;4.83;;;1.90;99.90;;;;;;5105863;28;20501;-54
2020/12/04 04:34:40;;;;;;;6.23;4.03;;;1.90;99.90;;;;;;5089680;28;20511;-54
2020/12/04 04:37:06;;;;;;;5.80;3.97;;;1.90;99.90;;;;;;5092856;28;20448;-55
2020/12/04 04:39:33;;;;;;;7.90;4.70;;;2.00;99.90;;;;;;5098638;28;20449;-55
2020/12/04 04:42:00;;;;;;;7.53;4.40;;;1.90;99.90;;;;;;5103450;28;20462;-55
2020/12/04 04:44:27;;;;;;;6.20;3.70;;;2.10;99.90;;;;;;5094213;28;20437;-54
2020/12/04 04:47:03;;;;;;;5.80;3.17;;;2.30;99.90;;;;;;5090406;28;20931;-55
2020/12/04 04:49:36;;;;;;;6.60;3.70;;;2.40;99.90;;;;;;5090357;28;20460;-55
2020/12/04 04:52:05;;;;;;;5.17;3.40;;;2.30;99.90;;;;;;5090671;28;20465;-55
2020/12/04 04:54:36;;;;;;;9.77;5.07;;;2.40;99.90;;;;;;5090317;28;20478;-55
2020/12/04 05:07:09;;;;;;;30.50;12.70;;;2.50;99.90;;;;;;5113927;28;20420;-55
2020/12/04 05:09:36;;;;;;;27.03;12.23;;;2.60;99.90;;;;;;5113831;28;20445;-55
2020/12/04 05:12:03;;;;;;;32.50;14.70;;;2.70;99.90;;;;;;5113982;28;20445;-55
2020/12/04 05:14:29;;;;;;;31.00;15.20;;;2.80;99.90;;;;;;5113753;28;20481;-55
2020/12/04 05:16:57;;;;;;;24.03;12.10;;;2.70;99.90;;;;;;5112291;28;20446;-54
2020/12/04 05:19:31;;;;;;;30.47;13.23;;;2.60;99.90;;;;;;5113858;28;20497;-55
2020/12/04 05:22:08;;;;;;;23.10;11.97;;;2.60;99.90;;;;;;5113775;28;20961;-55
2020/12/04 05:24:35;;;;;;;32.13;14.50;;;2.70;99.90;;;;;;5113402;28;20445;-55
2020/12/04 05:27:20;;;;;;;22.17;11.70;;;2.90;99.90;;;;;;5113817;27;20448;-55
2020/12/04 05:29:47;;;;;;;28.17;13.97;;;3.10;99.90;;;;;;5113630;28;20490;-55
2020/12/04 05:32:14;;;;;;;33.60;14.50;;;2.90;99.90;;;;;;5108227;28;21012;-55
2020/12/04 05:34:41;;;;;;;24.20;12.50;;;2.90;99.90;;;;;;5094291;28;20485;-54
2020/12/04 05:54:00;;;;;;;27.90;13.50;;;2.30;99.90;;;;;;5072937;28;20551;-50
2020/12/04 05:56:27;;;;;;;24.57;13.43;;;2.20;99.90;;;;;;5076848;28;20477;-50
2020/12/04 05:58:57;;;;;;;28.70;13.03;;;2.00;99.90;;;;;;5092440;28;20502;-50
2020/12/04 06:01:24;;;;;;;33.40;14.20;;;2.20;99.90;;;;;;5092390;28;20442;-50
2020/12/04 06:03:52;;;;;;;32.10;14.83;;;2.00;99.90;;;;;;5092566;28;20445;-50
2020/12/04 06:06:25;;;;;;;27.87;14.50;;;1.90;99.90;;;;;;5092459;28;21051;-50
2020/12/04 06:08:53;;;;;;;30.53;14.30;;;1.80;99.90;;;;;;5092558;28;20521;-50
2020/12/04 06:11:22;;;;;;;30.47;14.67;;;2.00;99.90;;;;;;5092452;28;20930;-50
2020/12/04 06:13:50;;;;;;;31.17;14.10;;;2.10;99.90;;;;;;5091407;28;20882;-50
2020/12/04 06:16:17;;;;;;;30.67;14.80;;;2.20;99.90;;;;;;5091787;28;20913;-50
2020/12/04 06:18:44;;;;;;;31.47;15.63;;;2.10;99.90;;;;;;5091871;28;20453;-51
2020/12/04 06:21:11;;;;;;;30.23;15.40;;;1.90;99.90;;;;;;5092196;28;20479;-51
2020/12/04 06:23:37;;;;;;;34.60;16.57;;;1.80;99.90;;;;;;5092318;28;20507;-50
2020/12/04 06:26:07;;;;;;;35.33;16.63;;;1.90;99.90;;;;;;5092117;28;20523;-50
2020/12/04 06:28:36;;;;;;;32.83;17.20;;;2.00;99.90;;;;;;5092004;28;20455;-51
2020/12/04 06:31:11;;;;;;;31.47;15.90;;;2.00;99.90;;;;;;5091577;28;20445;-50
2020/12/04 06:33:48;;;;;;;30.93;15.70;;;1.90;99.90;;;;;;5071840;28;20445;-51
2020/12/04 06:36:36;;;;;;;33.03;15.33;;;1.90;99.90;;;;;;5071739;28;20462;-51
2020/12/04 06:39:04;;;;;;;36.70;15.60;;;1.80;99.90;;;;;;5071562;28;20439;-51
2020/12/04 06:41:34;;;;;;;31.03;15.27;;;1.80;99.90;;;;;;5072656;28;20443;-51
2020/12/04 06:44:03;;;;;;;31.33;16.20;;;1.90;99.90;;;;;;5071525;28;20450;-51
2020/12/04 06:46:35;;;;;;;33.13;15.00;;;1.80;99.90;;;;;;5077273;28;20473;-51
2020/12/04 06:49:22;;;;;;;30.87;16.03;;;1.80;99.90;;;;;;5091699;28;20449;-51
2020/12/04 06:52:00;;;;;;;35.37;16.10;;;2.20;99.90;;;;;;5091671;28;20528;-51
2020/12/04 06:54:27;;;;;;;34.77;16.00;;;2.10;99.90;;;;;;5091719;28;20485;-51
2020/12/04 06:56:53;;;;;;;34.47;17.47;;;2.00;99.90;;;;;;5091677;28;20522;-50
2020/12/04 06:59:29;;;;;;;32.57;15.70;;;2.00;99.90;;;;;;5091297;28;20859;-51
2020/12/04 07:02:07;;;;;;;33.40;15.77;;;2.00;99.90;;;;;;5091221;28;20457;-51
2020/12/04 07:04:35;;;;;;;33.30;15.70;;;1.90;99.90;;;;;;5091269;28;20536;-51
2020/12/04 07:07:06;;;;;;;30.87;15.60;;;1.70;99.90;;;;;;5091506;28;20910;-51
2020/12/04 07:09:33;;;;;;;32.23;15.40;;;1.70;99.90;;;;;;5091122;28;20444;-51
2020/12/04 07:12:02;;;;;;;25.77;13.60;;;1.60;99.90;;;;;;5091449;28;20449;-51
2020/12/04 07:14:29;;;;;;;27.70;13.57;;;1.90;99.90;;;;;;5091183;28;20530;-51
2020/12/04 07:16:57;;;;;;;28.17;12.83;;;1.80;99.90;;;;;;5090420;28;20469;-51
2020/12/04 07:19:23;;;;;;;23.10;12.77;;;1.90;99.90;;;;;;5091255;28;20510;-51
2020/12/04 07:21:50;;;;;;;26.53;13.27;;;1.80;99.90;;;;;;5091344;28;20804;-51
2020/12/04 07:24:17;;;;;;;27.77;13.20;;;1.80;99.90;;;;;;5090773;28;21004;-51
2020/12/04 07:26:49;;;;;;;28.60;12.40;;;2.00;99.90;;;;;;5090887;28;21048;-51
2020/12/04 07:29:15;;;;;;;28.63;13.10;;;2.10;99.90;;;;;;5090847;28;20437;-51
2020/12/04 07:31:47;;;;;;;25.40;13.23;;;2.00;99.90;;;;;;5090493;28;20453;-51
2020/12/04 07:34:19;;;;;;;25.00;12.73;;;2.00;99.90;;;;;;5091033;28;20481;-51
2020/12/04 07:36:51;;;;;;;26.63;13.40;;;2.10;99.90;;;;;;5090975;28;20462;-51
2020/12/04 07:39:32;;;;;;;23.70;13.07;;;2.20;99.90;;;;;;5090657;28;20491;-51
2020/12/04 07:41:59;;;;;;;26.60;14.00;;;2.20;99.90;;;;;;5080832;28;20498;-51
2020/12/04 07:44:34;;;;;;;26.73;12.47;;;2.30;99.90;;;;;;5070923;28;20434;-51
2020/12/04 07:47:12;;;;;;;27.30;14.07;;;2.40;99.90;;;;;;5072531;28;20466;-51
2020/12/04 07:49:42;;;;;;;23.93;13.60;;;2.30;99.90;;;;;;5078995;28;20521;-51
2020/12/04 07:52:19;;;;;;;27.00;14.40;;;2.30;99.90;;;;;;5069794;28;20438;-50
2020/12/04 07:54:46;;;;;;;26.10;13.93;;;2.50;99.90;;;;;;5070840;28;20523;-50
2020/12/04 07:57:12;;;;;;;26.80;14.40;;;2.40;99.90;;;;;;5069820;28;20509;-50
2020/12/04 07:59:40;;;;;;;26.83;15.07;;;2.30;99.90;;;;;;5069694;28;20434;-50
2020/12/04 08:02:09;;;;;;;31.73;15.50;;;2.20;99.90;;;;;;5069968;28;20438;-50
2020/12/04 08:04:36;;;;;;;26.27;14.40;;;2.30;99.90;;;;;;5069784;28;20442;-50
2020/12/04 08:07:10;;;;;;;32.60;16.60;;;2.50;99.90;;;;;;5074501;28;20454;-50
2020/12/04 08:09:39;;;;;;;27.13;15.13;;;2.50;99.90;;;;;;5083607;28;20439;-50
2020/12/04 08:12:27;;;;;;;26.40;14.30;;;2.70;99.90;;;;;;5088742;28;20441;-51
2020/12/04 08:14:57;;;;;;;21.40;11.00;;;2.80;99.90;;;;;;5088366;28;20531;-51
2020/12/04 08:17:26;;;;;;;24.77;12.50;;;2.90;99.90;;;;;;5088785;28;20462;-51
2020/12/04 08:19:53;;;;;;;20.73;10.73;;;3.10;99.90;;;;;;5069283;28;20442;-51
2020/12/04 08:22:27;;;;;;;29.50;13.30;;;3.10;99.90;;;;;;5069892;28;20489;-51
2020/12/04 08:25:03;;;;;;;17.50;8.97;;;3.20;99.90;;;;;;5070026;28;20500;-50
2020/12/04 08:27:30;;;;;;;18.00;9.03;;;3.20;99.90;;;;;;5069504;28;20462;-51
2020/12/04 08:30:15;;;;;;;23.30;11.17;;;3.30;99.90;;;;;;5069428;28;20447;-51
2020/12/04 08:32:43;;;;;;;23.70;11.47;;;3.60;99.90;;;;;;5069648;28;20450;-50
2020/12/04 08:35:13;;;;;;;18.17;10.67;;;3.60;99.90;;;;;;5069457;28;20838;-50
2020/12/04 08:37:39;;;;;;;27.13;11.57;;;3.80;99.90;;;;;;5072810;28;20529;-50
2020/12/04 08:40:19;;;;;;;20.73;11.23;;;3.70;99.90;;;;;;5072952;28;20446;-50
2020/12/04 08:42:45;;;;;;;27.93;13.83;;;3.70;99.90;;;;;;5072801;28;20445;-50
2020/12/04 08:45:12;;;;;;;26.80;14.03;;;3.50;99.90;;;;;;5072065;28;20448;-49
2020/12/04 08:47:41;;;;;;;25.20;13.30;;;3.50;99.90;;;;;;5072757;28;20920;-51
2020/12/04 08:50:11;;;;;;;26.73;11.80;;;3.30;99.90;;;;;;5072758;28;20450;-51
2020/12/04 08:52:40;;;;;;;21.97;11.90;;;3.40;99.90;;;;;;5072573;28;20440;-50
2020/12/04 08:55:08;;;;;;;23.37;11.80;;;3.00;99.90;;;;;;5072934;28;20510;-50
2020/12/04 08:57:35;;;;;;;24.40;12.37;;;3.00;99.90;;;;;;5092060;28;20438;-50
2020/12/04 09:00:01;;;;;;;22.47;11.70;;;2.80;99.90;;;;;;5091468;28;20442;-50
2020/12/04 09:02:28;;;;;;;18.47;10.07;;;2.80;99.90;;;;;;5091817;28;20441;-50
2020/12/04 09:04:54;;;;;;;18.80;9.77;;;3.00;99.90;;;;;;5091830;28;20519;-51
2020/12/04 09:07:22;;;;;;;20.33;9.60;;;3.10;99.90;;;;;;5091308;28;20460;-50
2020/12/04 09:09:48;;;;;;;17.77;10.37;;;3.00;99.90;;;;;;5076415;28;20504;-51
2020/12/04 09:12:15;;;;;;;17.87;10.83;;;3.10;99.90;;;;;;5084458;28;21010;-51
2020/12/04 09:14:41;;;;;;;20.00;11.60;;;3.40;99.90;;;;;;5093290;28;20478;-51
2020/12/04 09:17:08;;;;;;;20.30;11.27;;;4.00;99.90;;;;;;5092460;28;20474;-51
2020/12/04 09:19:34;;;;;;;19.43;9.70;;;4.40;99.90;;;;;;5092902;28;20453;-51
2020/12/04 09:22:00;;;;;;;16.30;8.17;;;4.70;99.90;;;;;;5093105;28;20496;-50
2020/12/04 09:24:28;;;;;;;16.00;8.27;;;4.60;99.90;;;;;;5092983;28;20442;-51
2020/12/04 09:26:54;;;;;;;12.17;7.33;;;4.40;99.90;;;;;;5093328;28;20469;-51
2020/12/04 09:29:21;;;;;;;11.63;6.80;;;4.40;99.90;;;;;;5092773;28;20533;-51
2020/12/04 09:31:48;;;;;;;16.10;8.77;;;4.50;99.90;;;;;;5092632;28;20454;-51
2020/12/04 09:34:14;;;;;;;9.83;6.50;;;4.40;99.90;;;;;;5092182;28;20442;-50
2020/12/04 09:36:40;;;;;;;13.37;7.57;;;4.40;99.90;;;;;;5093064;28;20496;-51
2020/12/04 09:39:07;;;;;;;12.23;7.47;;;4.30;99.90;;;;;;5092554;28;21013;-51
2020/12/04 09:41:42;;;;;;;10.37;6.80;;;4.40;99.90;;;;;;5093490;28;20480;-51
2020/12/04 09:44:09;;;;;;;12.60;6.40;;;4.50;99.90;;;;;;5092826;28;20453;-51
2020/12/04 09:46:35;;;;;;;10.13;6.33;;;4.60;99.90;;;;;;5092061;28;20486;-50
2020/12/04 09:49:04;;;;;;;11.00;7.07;;;4.80;99.90;;;;;;5092248;28;20452;-51
2020/12/04 09:51:30;;;;;;;10.90;7.00;;;4.90;99.90;;;;;;5092996;28;20447;-50
2020/12/04 09:53:59;;;;;;;18.10;8.17;;;4.90;99.90;;;;;;5092440;28;20512;-51
2020/12/04 09:56:26;;;;;;;13.77;7.50;;;4.90;99.90;;;;;;5092922;28;20490;-51
2020/12/04 09:58:53;;;;;;;12.80;7.43;;;4.90;99.90;;;;;;5092479;28;20514;-50
2020/12/04 10:01:19;;;;;;;13.70;7.07;;;5.00;99.90;;;;;;5092080;28;20442;-50
2020/12/04 10:03:48;;;;;;;14.80;7.90;;;5.10;99.90;;;;;;5092616;28;20446;-51
2020/12/04 10:06:15;;;;;;;12.37;7.20;;;5.30;99.90;;;;;;5092436;28;20498;-50
2020/12/04 10:08:42;;;;;;;14.30;6.87;;;5.30;99.90;;;;;;5091980;28;20534;-51
2020/12/04 10:11:09;;;;;;;13.33;7.83;;;5.60;99.90;;;;;;5092154;28;20460;-51
2020/12/04 10:13:36;;;;;;;15.63;8.40;;;5.90;99.90;;;;;;5091770;28;20875;-50
2020/12/04 10:16:05;;;;;;;15.23;8.17;;;5.70;99.90;;;;;;5092130;28;20481;-50
2020/12/04 10:18:33;;;;;;;15.53;8.07;;;5.80;99.90;;;;;;5092149;28;20437;-51
2020/12/04 10:21:00;;;;;;;13.73;8.20;;;6.20;99.90;;;;;;5092055;28;20490;-50
2020/12/04 10:23:26;;;;;;;17.50;8.60;;;6.10;99.90;;;;;;5092270;28;20461;-51
2020/12/04 10:25:52;;;;;;;13.60;8.47;;;6.10;99.90;;;;;;5091698;28;20524;-50
2020/12/04 10:28:19;;;;;;;18.47;7.87;;;6.50;99.90;;;;;;5092228;28;20511;-51
2020/12/04 10:30:46;;;;;;;10.43;6.73;;;7.00;99.90;;;;;;5091550;28;20457;-51
2020/12/04 10:33:13;;;;;;;15.33;7.03;;;7.50;99.90;;;;;;5091842;28;20457;-51
2020/12/04 10:35:39;;;;;;;17.73;8.30;;;7.90;99.90;;;;;;5091931;28;20550;-51
2020/12/04 10:38:07;;;;;;;10.83;6.53;;;7.90;99.90;;;;;;5091824;28;20453;-50
2020/12/04 10:40:33;;;;;;;10.37;6.33;;;8.00;99.90;;;;;;5091840;28;20445;-51
2020/12/04 10:43:00;;;;;;;9.37;5.73;;;8.10;99.90;;;;;;5092176;28;20911;-51
2020/12/04 10:45:26;;;;;;;10.73;6.03;;;8.20;99.90;;;;;;5091881;28;20449;-51
2020/12/04 10:47:53;;;;;;;8.60;5.30;;;8.30;99.90;;;;;;5091542;28;20875;-51
2020/12/04 10:50:20;;;;;;;14.80;7.23;;;8.20;99.90;;;;;;5091646;28;20866;-51
2020/12/04 10:52:46;;;;;;;11.20;6.50;;;8.20;99.90;;;;;;5091578;28;20446;-51
2020/12/04 10:55:13;;;;;;;8.43;5.60;;;8.20;99.90;;;;;;5091387;28;20474;-51
2020/12/04 10:57:39;;;;;;;10.87;6.60;;;8.30;99.90;;;;;;5091236;28;20453;-50
2020/12/04 11:00:06;;;;;;;8.97;5.47;;;8.30;99.90;;;;;;5090672;28;20457;-50
2020/12/04 11:02:35;;;;;;;11.73;5.73;;;8.50;99.90;;;;;;5090264;28;20442;-51
2020/12/04 11:07:47;;;;;;;9.77;5.00;;;8.40;99.90;;;;;;5089055;28;20460;-50
2020/12/04 11:10:13;;;;;;;6.27;4.37;;;8.50;99.90;;;;;;5090542;28;20950;-51
2020/12/04 11:12:40;;;;;;;5.47;3.67;;;8.50;99.90;;;;;;5090994;28;20499;-50
2020/12/04 11:15:08;;;;;;;5.20;3.60;;;8.70;99.90;;;;;;5088810;28;20562;-51
2020/12/04 11:17:35;;;;;;;10.33;4.13;;;8.80;99.90;;;;;;5089799;28;21016;-51
2020/12/04 11:20:02;;;;;;;8.50;3.93;;;8.80;99.90;;;;;;5079992;28;20525;-51
2020/12/04 11:22:32;;;;;;;6.93;4.17;;;8.70;99.90;;;;;;5090434;28;20510;-50
2020/12/04 11:25:00;;;;;;;7.50;4.67;;;8.70;99.90;;;;;;5090960;28;20525;-51
2020/12/04 11:27:27;;;;;;;6.77;4.20;;;8.70;99.90;;;;;;5090402;28;20492;-51
2020/12/04 11:29:53;;;;;;;10.17;4.63;;;8.70;99.90;;;;;;5090535;28;20438;-51
2020/12/04 11:32:20;;;;;;;6.83;4.53;;;8.80;99.90;;;;;;5078991;28;20454;-51
2020/12/04 11:34:46;;;;;;;6.00;4.00;;;8.90;99.90;;;;;;5089608;28;20831;-51
2020/12/04 11:37:13;;;;;;;5.90;3.37;;;9.10;99.90;;;;;;5075290;28;20874;-50
2020/12/04 11:39:40;;;;;;;5.97;3.67;;;9.30;99.90;;;;;;5071183;28;20442;-51
2020/12/04 11:42:08;;;;;;;6.63;3.73;;;9.50;99.90;;;;;;5069621;28;20442;-51
2020/12/04 11:44:35;;;;;;;10.90;4.33;;;9.60;99.90;;;;;;5069534;28;20825;-50
2020/12/04 11:47:02;;;;;;;4.70;3.57;;;9.80;99.90;;;;;;5069259;28;20988;-50
2020/12/04 11:49:28;;;;;;;8.97;3.70;;;10.10;99.90;;;;;;5069258;28;20442;-50
2020/12/04 11:51:55;;;;;;;4.33;2.30;;;10.30;99.90;;;;;;5069339;28;20573;-51
2020/12/04 11:54:22;;;;;;;3.97;2.33;;;10.60;99.90;;;;;;5069589;28;20447;-50
2020/12/04 11:56:50;;;;;;;3.67;1.60;;;10.90;99.90;;;;;;5069144;28;20473;-51
2020/12/04 11:59:18;;;;;;;6.30;3.10;;;11.20;99.90;;;;;;5098897;22;21020;-56
2020/12/04 12:01:45;;;;;;;5.47;3.10;;;11.10;99.90;;;;;;5090131;28;20457;-56
2020/12/04 12:04:14;;;;;;;5.50;1.87;;;11.20;99.90;;;;;;5090263;28;21052;-56
2020/12/04 12:06:40;;;;;;;2.17;0.90;;;11.30;99.90;;;;;;5089371;28;20446;-56
2020/12/04 12:09:07;;;;;;;3.53;1.10;;;11.50;99.90;;;;;;5089811;28;21005;-56
2020/12/04 12:11:34;;;;;;;2.03;0.90;;;11.70;99.90;;;;;;5092111;28;20442;-56
2020/12/04 12:14:01;;;;;;;2.30;0.60;;;12.10;99.90;;;;;;5094480;28;20442;-56
2020/12/04 12:16:28;;;;;;;1.43;0.73;;;12.20;99.90;;;;;;5093957;28;20481;-56
2020/12/04 12:18:55;;;;;;;1.27;0.73;;;12.40;99.90;;;;;;5093898;28;20461;-56
2020/12/04 12:21:22;;;;;;;3.20;0.80;;;12.50;99.90;;;;;;5094133;28;20457;-56
2020/12/04 12:23:48;;;;;;;2.23;0.70;;;12.60;99.90;;;;;;5094267;28;20446;-56
2020/12/04 12:26:15;;;;;;;4.40;0.97;;;12.50;99.90;;;;;;5091556;28;20442;-55
2020/12/04 12:28:42;;;;;;;1.47;0.60;;;12.50;99.90;;;;;;5077901;28;20443;-56
2020/12/04 12:31:08;;;;;;;0.90;0.50;;;12.50;99.90;;;;;;5074214;28;20878;-56
2020/12/04 12:33:35;;;;;;;1.43;0.60;;;12.10;99.90;;;;;;5091897;28;20440;-55
2020/12/04 12:36:02;;;;;;;1.97;0.67;;;11.90;99.90;;;;;;5086415;28;20475;-55
2020/12/04 12:38:28;;;;;;;1.43;0.60;;;11.90;99.90;;;;;;5088139;28;20442;-56
2020/12/04 12:40:55;;;;;;;0.60;0.50;;;12.00;99.90;;;;;;5093554;28;20498;-56
2020/12/04 12:43:21;;;;;;;1.00;0.50;;;12.00;99.90;;;;;;5093489;28;20511;-56
2020/12/04 12:45:48;;;;;;;1.00;0.40;;;11.90;99.90;;;;;;5092911;28;20954;-55
2020/12/04 12:48:14;;;;;;;1.37;0.60;;;12.00;99.90;;;;;;5078753;28;20438;-55
2020/12/04 12:50:42;;;;;;;2.97;0.90;;;11.90;99.90;;;;;;5074085;28;20818;-54
2020/12/04 12:53:08;;;;;;;2.40;0.90;;;11.70;99.90;;;;;;5093824;28;20442;-55
2020/12/04 12:55:35;;;;;;;0.70;0.57;;;11.80;99.90;;;;;;5093922;28;20531;-56
2020/12/04 12:58:01;;;;;;;0.50;0.40;;;11.80;99.90;;;;;;5093833;28;20502;-55
2020/12/04 13:00:28;;;;;;;0.80;0.40;;;11.80;99.90;;;;;;5093517;28;20911;-55
2020/12/04 13:02:54;;;;;;;0.60;0.40;;;11.80;99.90;;;;;;5093565;28;20506;-55
2020/12/04 13:08:07;;;;;;;0.60;0.50;;;11.80;99.90;;;;;;5093474;28;20567;-55
2020/12/04 13:10:33;;;;;;;1.77;0.60;;;11.80;99.90;;;;;;5093418;28;20458;-55
2020/12/04 13:13:00;;;;;;;4.83;0.40;;;11.60;99.90;;;;;;5093607;28;20870;-55
2020/12/04 13:15:26;;;;;;;0.60;0.40;;;11.70;99.90;;;;;;5093336;28;20481;-55
2020/12/04 13:17:53;;;;;;;1.17;0.60;;;11.60;99.90;;;;;;5093354;28;20433;-55
2020/12/04 13:20:20;;;;;;;1.03;0.60;;;11.50;99.90;;;;;;5092985;28;20466;-55
2020/12/04 13:23:12;;;;;;;1.87;0.60;;;11.40;99.90;;;;;;5072866;28;20450;-56